createdAt,value
2018-10-18T00:01:46.217Z,12.40
2018-10-18T00:04:14.945Z,12.40
2018-10-18T00:06:43.658Z,12.40
2018-10-18T00:09:12.749Z,12.30
2018-10-18T00:11:41.453Z,12.30
2018-10-18T00:14:10.218Z,12.30
2018-10-18T00:16:38.889Z,12.30
2018-10-18T00:19:07.601Z,12.20
2018-10-18T00:21:36.302Z,12.20
2018-10-18T00:24:05.047Z,12.20
2018-10-18T00:26:33.766Z,12.20
2018-10-18T00:29:02.494Z,12.10
2018-10-18T00:31:31.205Z,12.10
2018-10-18T00:33:59.924Z,12.00
2018-10-18T00:36:28.641Z,12.00
2018-10-18T00:38:57.334Z,12.00
2018-10-18T00:41:26.068Z,11.90
2018-10-18T00:43:54.811Z,11.90
2018-10-18T00:46:23.474Z,11.90
2018-10-18T00:48:52.186Z,11.90
2018-10-18T00:51:20.890Z,11.90
2018-10-18T00:53:49.606Z,11.90
2018-10-18T00:56:18.387Z,11.90
2018-10-18T00:58:47.025Z,11.90
2018-10-18T01:01:15.793Z,11.90
2018-10-18T01:03:44.514Z,11.90
2018-10-18T01:06:13.348Z,11.80
2018-10-18T01:08:41.963Z,11.80
2018-10-18T01:11:10.699Z,11.80
2018-10-18T01:13:39.439Z,11.70
2018-10-18T01:16:08.161Z,11.70
2018-10-18T01:18:36.878Z,11.70
2018-10-18T01:21:05.585Z,11.70
2018-10-18T01:23:34.321Z,11.60
2018-10-18T01:26:03.441Z,11.60
2018-10-18T01:31:34.183Z,11.60
2018-10-18T01:34:02.901Z,11.60
2018-10-18T01:36:31.606Z,11.60
2018-10-18T01:39:00.317Z,11.60
2018-10-18T01:41:29.013Z,11.50
2018-10-18T01:43:57.773Z,11.50
2018-10-18T01:46:26.774Z,11.50
2018-10-18T01:48:55.494Z,11.50
2018-10-18T01:51:24.202Z,11.50
2018-10-18T01:53:52.906Z,11.50
2018-10-18T01:56:21.645Z,11.50
2018-10-18T01:58:50.362Z,11.50
2018-10-18T02:01:19.075Z,11.50
2018-10-18T02:03:47.781Z,11.50
2018-10-18T02:06:16.558Z,11.40
2018-10-18T02:08:46.238Z,11.40
2018-10-18T02:11:14.945Z,11.40
2018-10-18T02:13:43.714Z,11.30
2018-10-18T02:16:12.361Z,11.30
2018-10-18T02:18:41.104Z,11.30
2018-10-18T02:21:09.769Z,11.30
2018-10-18T02:23:38.550Z,11.30
2018-10-18T02:26:07.258Z,11.30
2018-10-18T02:28:35.987Z,11.30
2018-10-18T02:31:04.937Z,11.30
2018-10-18T02:33:33.662Z,11.20
2018-10-18T02:36:02.530Z,11.20
2018-10-18T02:38:31.261Z,11.20
2018-10-18T02:40:59.974Z,11.20
2018-10-18T02:43:28.685Z,11.20
2018-10-18T02:45:57.391Z,11.20
2018-10-18T02:48:26.145Z,11.10
2018-10-18T02:50:54.853Z,11.10
2018-10-18T02:53:23.566Z,11.10
2018-10-18T02:55:52.269Z,11.10
2018-10-18T02:58:21.036Z,11.10
2018-10-18T03:09:32.226Z,11.00
2018-10-18T03:12:00.967Z,11.00
2018-10-18T03:14:29.689Z,11.00
2018-10-18T03:16:58.438Z,11.00
2018-10-18T03:19:27.149Z,11.00
2018-10-18T03:21:55.845Z,11.00
2018-10-18T03:24:24.554Z,11.00
2018-10-18T03:26:53.306Z,11.00
2018-10-18T03:29:22.035Z,11.00
2018-10-18T03:31:50.739Z,11.00
2018-10-18T03:34:19.445Z,11.00
2018-10-18T03:36:48.162Z,10.90
2018-10-18T03:39:16.866Z,10.90
2018-10-18T03:41:45.574Z,10.90
2018-10-18T03:44:14.291Z,10.90
2018-10-18T03:46:42.991Z,10.80
2018-10-18T03:49:11.713Z,10.80
2018-10-18T03:51:40.450Z,10.70
2018-10-18T03:54:09.172Z,10.70
2018-10-18T03:56:37.870Z,10.70
2018-10-18T03:59:06.927Z,10.70
2018-10-18T04:01:35.653Z,10.70
2018-10-18T04:04:04.357Z,10.70
2018-10-18T04:06:33.085Z,10.70
2018-10-18T04:09:01.789Z,10.70
2018-10-18T04:11:30.502Z,10.70
2018-10-18T04:13:59.210Z,10.70
2018-10-18T04:16:28.074Z,10.70
2018-10-18T04:18:56.796Z,10.70
2018-10-18T04:21:25.511Z,10.70
2018-10-18T04:23:54.282Z,10.80
2018-10-18T04:26:23.006Z,10.70
2018-10-18T04:28:51.707Z,10.80
2018-10-18T04:31:20.418Z,10.70
2018-10-18T04:33:49.121Z,10.70
2018-10-18T04:36:17.831Z,10.70
2018-10-18T04:38:46.538Z,10.60
2018-10-18T04:41:15.250Z,10.60
2018-10-18T04:43:43.961Z,10.60
2018-10-18T04:46:12.665Z,10.60
2018-10-18T04:48:41.553Z,10.60
2018-10-18T04:51:10.233Z,10.60
2018-10-18T04:53:38.941Z,10.60
2018-10-18T04:56:07.690Z,10.50
2018-10-18T04:58:36.409Z,10.50
2018-10-18T05:01:05.605Z,10.50
2018-10-18T05:03:34.216Z,10.40
2018-10-18T05:06:04.385Z,10.40
2018-10-18T05:08:33.109Z,10.40
2018-10-18T05:11:01.987Z,10.40
2018-10-18T05:13:30.694Z,10.40
2018-10-18T05:16:09.167Z,10.40
2018-10-18T05:18:37.910Z,10.30
2018-10-18T05:21:06.628Z,10.30
2018-10-18T05:23:35.330Z,10.30
2018-10-18T05:26:04.035Z,10.30
2018-10-18T05:28:34.157Z,10.30
2018-10-18T05:31:02.936Z,10.30
2018-10-18T05:33:31.576Z,10.30
2018-10-18T05:36:00.358Z,10.30
2018-10-18T05:38:29.069Z,10.30
2018-10-18T05:40:57.773Z,10.30
2018-10-18T05:43:26.573Z,10.30
2018-10-18T05:45:56.533Z,10.30
2018-10-18T05:48:25.248Z,10.30
2018-10-18T05:50:57.982Z,10.30
2018-10-18T05:53:35.519Z,10.30
2018-10-18T05:56:06.207Z,10.20
2018-10-18T05:58:34.913Z,10.20
2018-10-18T06:01:19.274Z,10.20
2018-10-18T06:06:54.680Z,10.20
2018-10-18T06:09:33.593Z,10.20
2018-10-18T06:12:02.644Z,10.20
2018-10-18T06:14:31.377Z,10.20
2018-10-18T06:17:00.077Z,10.20
2018-10-18T06:25:20.142Z,10.20
2018-10-18T06:28:07.934Z,10.30
2018-10-18T06:30:36.725Z,10.30
2018-10-18T06:33:17.222Z,10.30
2018-10-18T06:35:45.939Z,10.30
2018-10-18T06:38:14.658Z,10.30
2018-10-18T06:40:43.386Z,10.30
2018-10-18T06:43:12.154Z,10.40
2018-10-18T06:45:40.836Z,10.40
2018-10-18T06:48:09.560Z,10.40
2018-10-18T06:50:38.245Z,10.40
2018-10-18T06:53:06.954Z,10.40
2018-10-18T06:55:35.697Z,10.50
2018-10-18T06:58:04.400Z,10.50
2018-10-18T07:00:33.224Z,10.60
2018-10-18T07:03:02.923Z,10.70
2018-10-18T07:05:31.725Z,10.80
2018-10-18T07:08:00.442Z,10.80
2018-10-18T07:10:39.031Z,10.80
2018-10-18T07:13:07.693Z,10.80
2018-10-18T07:15:54.206Z,10.90
2018-10-18T07:18:22.942Z,10.90
2018-10-18T07:23:57.641Z,11.00
2018-10-18T07:26:26.338Z,11.10
2018-10-18T07:28:55.126Z,11.20
2018-10-18T07:31:23.853Z,11.20
2018-10-18T07:33:52.562Z,11.30
2018-10-18T07:36:21.270Z,11.40
2018-10-18T07:38:49.985Z,11.40
2018-10-18T07:41:33.269Z,11.50
2018-10-18T07:44:02.063Z,11.50
2018-10-18T07:46:30.777Z,11.60
2018-10-18T07:49:06.321Z,11.60
2018-10-18T07:51:35.326Z,11.60
2018-10-18T07:54:04.125Z,11.70
2018-10-18T07:56:33.198Z,11.90
2018-10-18T07:59:01.906Z,12.00
2018-10-18T08:01:30.625Z,12.20
2018-10-18T08:03:59.389Z,12.30
2018-10-18T08:09:25.557Z,12.50
2018-10-18T08:14:45.670Z,12.70
2018-10-18T08:17:16.421Z,12.80
2018-10-18T08:19:45.105Z,12.90
2018-10-18T08:22:26.409Z,12.90
2018-10-18T08:25:05.943Z,13.00
2018-10-18T08:27:35.049Z,13.10
2018-10-18T08:30:04.214Z,13.20
2018-10-18T08:32:32.929Z,13.30
2018-10-18T08:35:01.652Z,13.30
2018-10-18T08:37:30.443Z,13.40
2018-10-18T08:39:59.118Z,13.50
2018-10-18T08:42:27.845Z,13.50
2018-10-18T08:44:56.561Z,13.60
2018-10-18T08:47:25.321Z,13.70
2018-10-18T08:49:54.120Z,13.80
2018-10-18T08:52:22.751Z,13.80
2018-10-18T08:54:51.464Z,13.90
2018-10-18T08:57:20.196Z,13.90
2018-10-18T08:59:48.912Z,14.00
2018-10-18T09:02:17.625Z,14.10
2018-10-18T09:04:46.521Z,14.20
2018-10-18T09:07:15.376Z,14.20
2018-10-18T09:09:43.957Z,14.30
2018-10-18T09:12:12.673Z,14.50
2018-10-18T09:14:41.382Z,14.50
2018-10-18T09:17:31.320Z,14.60
2018-10-18T09:20:00.442Z,14.70
2018-10-18T09:22:29.210Z,14.80
2018-10-18T09:24:57.907Z,14.90
2018-10-18T09:27:26.760Z,15.00
2018-10-18T09:29:55.342Z,15.10
2018-10-18T09:32:24.280Z,15.10
2018-10-18T09:34:53.005Z,15.20
2018-10-18T09:37:22.017Z,15.30
2018-10-18T09:39:50.729Z,15.40
2018-10-18T09:42:19.443Z,15.40
2018-10-18T09:44:48.170Z,15.50
2018-10-18T09:47:16.862Z,15.50
2018-10-18T09:49:45.566Z,15.60
2018-10-18T09:52:14.286Z,15.70
2018-10-18T09:54:43.004Z,15.80
2018-10-18T09:57:11.726Z,15.90
2018-10-18T09:59:40.438Z,15.90
2018-10-18T10:02:14.585Z,16.00
2018-10-18T10:04:45.325Z,16.10
2018-10-18T10:07:14.098Z,16.20
2018-10-18T10:09:42.757Z,16.20
2018-10-18T10:12:11.508Z,16.20
2018-10-18T10:14:40.194Z,16.30
2018-10-18T10:17:08.961Z,16.30
2018-10-18T10:19:55.565Z,16.40
2018-10-18T10:22:24.298Z,16.50
2018-10-18T10:24:53.015Z,16.60
2018-10-18T10:27:21.733Z,16.60
2018-10-18T10:29:50.437Z,16.70
2018-10-18T10:32:19.325Z,16.70
2018-10-18T10:35:01.590Z,16.80
2018-10-18T10:37:30.318Z,16.80
2018-10-18T10:39:59.073Z,16.90
2018-10-18T10:42:27.761Z,17.00
2018-10-18T10:44:56.509Z,17.10
2018-10-18T10:47:25.174Z,17.10
2018-10-18T10:49:53.883Z,17.20
2018-10-18T10:52:22.647Z,17.20
2018-10-18T10:54:51.311Z,17.30
2018-10-18T10:57:20.023Z,17.30
2018-10-18T10:59:48.740Z,17.30
2018-10-18T11:02:17.569Z,17.40
2018-10-18T11:04:46.165Z,17.40
2018-10-18T11:07:30.461Z,17.50
2018-10-18T11:09:59.172Z,17.50
2018-10-18T11:12:27.988Z,17.50
2018-10-18T11:14:56.649Z,17.60
2018-10-18T11:17:25.329Z,17.70
2018-10-18T11:22:50.329Z,17.90
2018-10-18T11:25:19.201Z,18.00
2018-10-18T11:27:47.965Z,18.00
2018-10-18T11:30:16.833Z,18.10
2018-10-18T11:32:51.420Z,18.20
2018-10-18T11:35:20.126Z,18.30
2018-10-18T11:37:48.843Z,18.40
2018-10-18T11:40:17.562Z,18.50
2018-10-18T11:42:46.387Z,18.50
2018-10-18T11:45:14.991Z,18.60
2018-10-18T11:47:43.713Z,18.70
2018-10-18T11:50:12.505Z,18.70
2018-10-18T11:52:41.158Z,18.70
2018-10-18T11:55:09.874Z,18.70
2018-10-18T11:57:38.582Z,18.60
2018-10-18T12:00:07.313Z,18.60
2018-10-18T12:02:36.097Z,18.60
2018-10-18T12:05:05.040Z,18.60
2018-10-18T12:07:33.737Z,18.60
2018-10-18T12:10:02.453Z,18.50
2018-10-18T12:12:35.195Z,18.50
2018-10-18T12:15:04.173Z,18.60
2018-10-18T12:17:32.886Z,18.70
2018-10-18T12:20:01.678Z,18.70
2018-10-18T12:22:30.374Z,18.70
2018-10-18T12:25:11.601Z,18.70
2018-10-18T12:27:40.529Z,18.60
2018-10-18T12:30:09.706Z,18.50
2018-10-18T12:32:38.717Z,18.30
2018-10-18T12:35:07.586Z,18.20
2018-10-18T12:37:36.390Z,18.20
2018-10-18T12:40:06.500Z,18.30
2018-10-18T12:42:36.038Z,18.30
2018-10-18T12:45:05.130Z,18.30
2018-10-18T12:47:33.837Z,18.20
2018-10-18T12:50:02.575Z,18.30
2018-10-18T12:52:31.299Z,18.30
2018-10-18T12:55:00.031Z,18.40
2018-10-18T12:57:28.765Z,18.40
2018-10-18T12:59:57.499Z,18.50
2018-10-18T13:02:26.842Z,18.50
2018-10-18T13:04:55.537Z,18.50
2018-10-18T13:07:24.254Z,18.50
2018-10-18T13:09:53.466Z,18.50
2018-10-18T13:12:22.209Z,18.40
2018-10-18T13:14:50.918Z,18.40
2018-10-18T13:17:19.632Z,18.40
2018-10-18T13:19:52.456Z,18.40
2018-10-18T13:22:21.148Z,18.50
2018-10-18T13:24:49.874Z,18.50
2018-10-18T13:27:18.582Z,18.40
2018-10-18T13:29:47.330Z,18.40
2018-10-18T13:32:16.116Z,18.40
2018-10-18T13:34:44.861Z,18.40
2018-10-18T13:37:13.568Z,18.50
2018-10-18T13:39:42.281Z,18.50
2018-10-18T13:42:11.051Z,18.50
2018-10-18T13:44:39.713Z,18.40
2018-10-18T13:47:08.426Z,18.40
2018-10-18T13:49:37.129Z,18.40
2018-10-18T13:52:13.433Z,18.30
2018-10-18T13:54:42.149Z,18.30
2018-10-18T13:57:10.858Z,18.30
2018-10-18T13:59:51.345Z,18.30
2018-10-18T14:02:20.066Z,18.20
2018-10-18T14:05:04.302Z,18.10
2018-10-18T14:07:32.970Z,18.10
2018-10-18T14:10:01.693Z,18.10
2018-10-18T14:12:30.407Z,18.00
2018-10-18T14:14:59.117Z,18.00
2018-10-18T14:17:28.016Z,18.00
2018-10-18T14:19:56.804Z,18.10
2018-10-18T14:22:25.478Z,18.10
2018-10-18T14:24:54.198Z,18.10
2018-10-18T14:27:22.914Z,18.10
2018-10-18T14:32:51.573Z,18.10
2018-10-18T14:35:20.340Z,18.10
2018-10-18T14:37:49.002Z,18.10
2018-10-18T14:40:17.709Z,18.00
2018-10-18T14:42:46.426Z,18.00
2018-10-18T14:45:15.169Z,18.00
2018-10-18T14:47:43.991Z,18.00
2018-10-18T14:50:13.628Z,18.00
2018-10-18T14:52:42.873Z,18.00
2018-10-18T14:55:11.597Z,18.00
2018-10-18T14:57:40.654Z,17.90
2018-10-18T15:00:10.789Z,17.90
2018-10-18T15:02:51.246Z,17.90
2018-10-18T15:05:20.059Z,17.90
2018-10-18T15:07:48.670Z,17.90
2018-10-18T15:10:23.402Z,17.80
2018-10-18T15:12:52.123Z,17.80
2018-10-18T15:15:20.841Z,17.80
2018-10-18T15:17:49.772Z,17.70
2018-10-18T15:20:18.516Z,17.70
2018-10-18T15:22:47.221Z,17.60
2018-10-18T15:25:15.970Z,17.60
2018-10-18T15:27:44.821Z,17.50
2018-10-18T15:30:13.638Z,17.40
2018-10-18T15:44:11.430Z,17.10
2018-10-18T15:46:40.064Z,17.10
2018-10-18T15:49:09.054Z,17.00
2018-10-18T15:51:48.585Z,16.90
2018-10-18T15:54:17.384Z,16.90
2018-10-18T15:56:46.013Z,16.80
2018-10-18T15:59:14.769Z,16.70
2018-10-18T16:01:43.440Z,16.70
2018-10-18T16:04:12.145Z,16.60
2018-10-18T16:06:40.865Z,16.60
2018-10-18T16:09:11.212Z,16.50
2018-10-18T16:11:39.938Z,16.40
2018-10-18T16:14:30.989Z,16.40
2018-10-18T16:16:59.804Z,16.30
2018-10-18T16:19:28.470Z,16.20
2018-10-18T16:21:57.185Z,16.20
2018-10-18T16:24:26.423Z,16.10
2018-10-18T16:26:55.240Z,16.00
2018-10-18T16:29:23.955Z,15.90
2018-10-18T16:31:52.674Z,15.90
2018-10-18T16:34:21.409Z,15.80
2018-10-18T16:36:50.114Z,15.80
2018-10-18T16:39:18.821Z,15.70
2018-10-18T16:41:47.603Z,15.70
2018-10-18T16:44:16.348Z,15.60
2018-10-18T16:46:44.969Z,15.60
2018-10-18T16:49:13.681Z,15.50
2018-10-18T16:51:42.381Z,15.50
2018-10-18T16:54:11.140Z,15.40
2018-10-18T16:56:54.374Z,15.30
2018-10-18T16:59:23.102Z,15.30
2018-10-18T17:01:51.866Z,15.30
2018-10-18T17:04:20.647Z,15.20
2018-10-18T17:06:49.257Z,15.10
2018-10-18T17:09:17.973Z,15.10
2018-10-18T17:11:46.679Z,15.10
2018-10-18T17:14:15.508Z,15.00
2018-10-18T17:16:44.134Z,15.00
2018-10-18T17:19:12.844Z,15.00
2018-10-18T17:21:41.561Z,15.00
2018-10-18T17:24:10.373Z,14.90
2018-10-18T17:26:39.099Z,14.90
2018-10-18T17:29:07.765Z,14.90
2018-10-18T17:31:36.471Z,14.80
2018-10-18T17:34:05.300Z,14.80
2018-10-18T17:36:33.982Z,14.80
2018-10-18T17:39:02.798Z,14.70
2018-10-18T17:41:31.505Z,14.70
2018-10-18T17:44:00.268Z,14.70
2018-10-18T17:46:28.937Z,14.60
2018-10-18T17:48:57.844Z,14.60
2018-10-18T17:51:26.555Z,14.50
2018-10-18T17:53:55.300Z,14.50
2018-10-18T17:56:24.031Z,14.50
2018-10-18T17:58:52.746Z,14.50
2018-10-18T18:01:21.453Z,14.40
2018-10-18T18:03:50.169Z,14.40
2018-10-18T18:06:19.015Z,14.40
2018-10-18T18:08:47.625Z,14.30
2018-10-18T18:11:16.333Z,14.30
2018-10-18T18:13:45.049Z,14.30
2018-10-18T18:16:13.850Z,14.30
2018-10-18T18:18:42.742Z,14.20
2018-10-18T18:21:11.466Z,14.20
2018-10-18T18:23:40.178Z,14.20
2018-10-18T18:26:08.893Z,14.20
2018-10-18T18:28:37.799Z,14.20
2018-10-18T18:31:06.545Z,14.20
2018-10-18T18:33:35.233Z,14.10
2018-10-18T18:36:03.946Z,14.10
2018-10-18T18:38:32.658Z,14.10
2018-10-18T18:41:01.370Z,14.00
2018-10-18T18:43:30.410Z,14.00
2018-10-18T18:45:59.114Z,14.00
2018-10-18T18:48:27.828Z,13.90
2018-10-18T18:50:56.584Z,13.90
2018-10-18T18:53:25.297Z,13.90
2018-10-18T18:55:53.986Z,13.90
2018-10-18T18:58:22.726Z,13.80
2018-10-18T19:00:51.452Z,13.80
2018-10-18T19:03:20.157Z,13.80
2018-10-18T19:05:48.870Z,13.80
2018-10-18T19:08:17.586Z,13.80
2018-10-18T19:10:46.338Z,13.70
2018-10-18T19:13:16.159Z,13.70
2018-10-18T19:15:44.890Z,13.70
2018-10-18T19:18:13.577Z,13.70
2018-10-18T19:20:42.289Z,13.70
2018-10-18T19:23:11.290Z,13.70
2018-10-18T19:25:39.973Z,13.70
2018-10-18T19:28:08.710Z,13.60
2018-10-18T19:30:37.414Z,13.50
2018-10-18T19:33:06.161Z,13.50
2018-10-18T19:35:34.901Z,13.40
2018-10-18T19:38:03.636Z,13.40
2018-10-18T19:40:32.338Z,13.40
2018-10-18T19:43:01.037Z,13.30
2018-10-18T19:45:29.803Z,13.30
2018-10-18T19:47:58.477Z,13.40
2018-10-18T19:50:27.206Z,13.40
2018-10-18T19:52:55.971Z,13.40
2018-10-18T19:55:24.670Z,13.30
2018-10-18T19:57:53.435Z,13.30
2018-10-18T20:00:22.126Z,13.30
2018-10-18T20:02:50.834Z,13.20
2018-10-18T20:05:19.554Z,13.20
2018-10-18T20:07:48.271Z,13.20
2018-10-18T20:10:16.969Z,13.20
2018-10-18T20:12:45.701Z,13.20
2018-10-18T20:15:15.590Z,13.10
2018-10-18T20:17:45.115Z,13.10
2018-10-18T20:20:13.871Z,13.10
2018-10-18T20:22:42.577Z,13.00
2018-10-18T20:25:11.371Z,13.00
2018-10-18T20:27:40.031Z,13.10
2018-10-18T20:30:11.389Z,13.00
2018-10-18T20:32:40.045Z,13.00
2018-10-18T20:35:09.089Z,13.00
2018-10-18T20:37:38.111Z,12.90
2018-10-18T20:40:08.904Z,12.90
2018-10-18T20:42:37.610Z,12.80
2018-10-18T20:45:06.809Z,12.80
2018-10-18T20:47:35.616Z,12.80
2018-10-18T20:50:16.704Z,12.80
2018-10-18T20:52:45.410Z,12.80
2018-10-18T20:55:14.136Z,12.70
2018-10-18T20:57:42.830Z,12.70
2018-10-18T21:00:11.639Z,12.70
2018-10-18T21:02:40.245Z,12.70
2018-10-18T21:05:09.093Z,12.60
2018-10-18T21:07:37.827Z,12.60
2018-10-18T21:10:11.250Z,12.60
2018-10-18T21:12:40.694Z,12.50
2018-10-18T21:15:09.484Z,12.50
2018-10-18T21:17:38.101Z,12.50
2018-10-18T21:20:06.829Z,12.50
2018-10-18T21:22:35.549Z,12.50
2018-10-18T21:25:05.290Z,12.40
2018-10-18T21:27:34.039Z,12.40
2018-10-18T21:30:02.706Z,12.40
2018-10-18T21:32:31.437Z,12.40
2018-10-18T21:35:00.180Z,12.30
2018-10-18T21:37:28.873Z,12.30
2018-10-18T21:39:57.577Z,12.20
2018-10-18T21:42:26.270Z,12.20
2018-10-18T21:44:55.244Z,12.20
2018-10-18T21:47:24.010Z,12.10
2018-10-18T21:49:52.702Z,12.10
2018-10-18T21:52:21.425Z,12.10
2018-10-18T21:54:50.286Z,12.00
2018-10-18T21:57:28.235Z,12.00
2018-10-18T21:59:56.950Z,12.00
2018-10-18T22:02:25.665Z,11.90
2018-10-18T22:04:54.505Z,11.90
2018-10-18T22:07:23.214Z,11.90
2018-10-18T22:09:51.951Z,11.80
2018-10-18T22:19:31.279Z,11.70
2018-10-18T22:21:59.985Z,11.70
2018-10-18T22:24:28.716Z,11.60
2018-10-18T22:26:57.438Z,11.60
2018-10-18T22:29:26.427Z,11.50
2018-10-18T22:31:55.178Z,11.50
2018-10-18T22:34:23.887Z,11.50
2018-10-18T22:36:53.750Z,11.50
2018-10-18T22:39:22.545Z,11.50
2018-10-18T22:41:51.325Z,11.50
2018-10-18T22:44:20.059Z,11.40
2018-10-18T22:46:48.758Z,11.40
2018-10-18T22:49:19.700Z,11.40
2018-10-18T22:51:49.317Z,11.30
2018-10-18T22:54:18.038Z,11.30
2018-10-18T22:56:46.858Z,11.30
2018-10-18T22:59:15.680Z,11.20
2018-10-18T23:01:44.290Z,11.20
2018-10-18T23:04:24.791Z,11.20
2018-10-18T23:06:53.522Z,11.10
2018-10-18T23:09:22.262Z,11.10
2018-10-18T23:11:50.986Z,11.00
2018-10-18T23:14:19.721Z,11.00
2018-10-18T23:16:48.475Z,11.00
2018-10-18T23:19:17.190Z,11.00
2018-10-18T23:21:45.995Z,11.00
2018-10-18T23:24:14.713Z,11.00
2018-10-18T23:26:43.458Z,10.90
2018-10-18T23:29:12.228Z,10.90
2018-10-18T23:31:54.301Z,10.90
2018-10-18T23:34:23.022Z,10.80
2018-10-18T23:36:51.738Z,10.80
2018-10-18T23:39:20.453Z,10.70
2018-10-18T23:41:49.208Z,10.70
2018-10-18T23:44:17.901Z,10.70
2018-10-18T23:47:04.254Z,10.60
2018-10-18T23:49:32.900Z,10.60
2018-10-18T23:52:01.602Z,10.60
2018-10-18T23:54:30.352Z,10.50
2018-10-18T23:57:05.854Z,10.50
2018-10-18T23:59:34.532Z,10.50
